Time;durP1;ratioP1;P1;durP2;ratioP2;P2;SDS_P1;SDS_P2;PMS_P1;PMS_P2;Temp;Humidity;BMP_temperature;BMP_pressure;BME280_temperature;BME280_humidity;BME280_pressure;Samples;Min_cycle;Max_cycle;Signal;HPM_P1;HPM_P2
2021/05/02 00:00:05;;;;;;;56.00;37.23;;;;;;;;;;5021811;28;20448;-79
2021/05/02 00:02:39;;;;;;;53.90;36.87;;;;;;;;;;5016507;28;20466;-74
2021/05/02 00:05:12;;;;;;;53.30;36.17;;;;;;;;;;5022002;28;20943;-77
2021/05/02 00:07:45;;;;;;;47.80;33.43;;;;;;;;;;5019592;28;20506;-73
2021/05/02 00:10:19;;;;;;;46.90;32.13;;;;;;;;;;5024000;28;21000;-73
2021/05/02 00:12:51;;;;;;;48.60;33.47;;;;;;;;;;5021041;28;20455;-73
2021/05/02 00:15:25;;;;;;;41.10;29.87;;;;;;;;;;5021653;28;20538;-75
2021/05/02 00:17:58;;;;;;;48.23;30.60;;;;;;;;;;5024936;28;20450;-81
2021/05/02 00:20:31;;;;;;;44.67;30.47;;;;;;;;;;5013594;28;20770;-74
2021/05/02 00:23:06;;;;;;;43.83;29.30;;;;;;;;;;5025735;28;20478;-74
2021/05/02 00:25:38;;;;;;;38.93;28.47;;;;;;;;;;5021346;28;20500;-75
2021/05/02 00:28:11;;;;;;;40.47;29.00;;;;;;;;;;5018125;28;20499;-74
2021/05/02 00:30:42;;;;;;;36.77;28.10;;;;;;;;;;5023186;28;20530;-73
2021/05/02 00:33:15;;;;;;;39.27;28.43;;;;;;;;;;5027616;28;20445;-74
2021/05/02 00:35:48;;;;;;;41.60;28.87;;;;;;;;;;5026060;28;20496;-73
2021/05/02 00:38:20;;;;;;;36.67;26.70;;;;;;;;;;5033523;28;20442;-80
2021/05/02 00:40:57;;;;;;;40.33;27.97;;;;;;;;;;5035116;28;20440;-76
2021/05/02 00:43:34;;;;;;;40.80;29.07;;;;;;;;;;5026137;28;20473;-74
2021/05/02 00:46:11;;;;;;;35.50;25.77;;;;;;;;;;5026861;28;20931;-74
2021/05/02 00:48:56;;;;;;;37.37;27.97;;;;;;;;;;5018670;28;20461;-76
2021/05/02 00:51:29;;;;;;;39.40;27.63;;;;;;;;;;5031111;28;20450;-74
2021/05/02 00:54:14;;;;;;;40.13;28.03;;;;;;;;;;5019204;28;20544;-74
2021/05/02 00:56:58;;;;;;;35.13;26.63;;;;;;;;;;5023591;28;20522;-74
2021/05/02 00:59:42;;;;;;;37.47;27.33;;;;;;;;;;5025428;28;20492;-74
2021/05/02 01:02:16;;;;;;;38.00;28.50;;;;;;;;;;5019566;28;20509;-74
2021/05/02 01:04:50;;;;;;;40.80;29.50;;;;;;;;;;5015507;28;20458;-74
2021/05/02 01:07:24;;;;;;;36.47;26.80;;;;;;;;;;5012434;28;20485;-74
2021/05/02 01:09:57;;;;;;;38.00;29.10;;;;;;;;;;5023529;28;20556;-73
2021/05/02 01:12:27;;;;;;;40.57;28.27;;;;;;;;;;5020879;28;20446;-80
2021/05/02 01:15:02;;;;;;;47.83;30.80;;;;;;;;;;5018988;28;20539;-77
2021/05/02 01:17:34;;;;;;;41.67;29.90;;;;;;;;;;5016011;28;20442;-77
2021/05/02 01:20:08;;;;;;;44.50;31.60;;;;;;;;;;5020059;28;20818;-81
2021/05/02 01:22:41;;;;;;;40.27;30.17;;;;;;;;;;5017944;28;20569;-77
2021/05/02 01:25:16;;;;;;;50.50;33.90;;;;;;;;;;5021686;28;20505;-79
2021/05/02 01:27:49;;;;;;;43.07;32.10;;;;;;;;;;5016474;28;20509;-77
2021/05/02 01:30:19;;;;;;;42.90;29.90;;;;;;;;;;5021574;28;20539;-78
2021/05/02 01:32:52;;;;;;;46.20;30.60;;;;;;;;;;5022234;28;21026;-79
2021/05/02 01:35:24;;;;;;;43.87;31.53;;;;;;;;;;5016247;28;20561;-78
2021/05/02 01:37:55;;;;;;;42.70;31.50;;;;;;;;;;5014611;28;21018;-78
2021/05/02 01:40:28;;;;;;;48.30;31.40;;;;;;;;;;5017776;28;20505;-77
2021/05/02 01:43:00;;;;;;;51.73;33.00;;;;;;;;;;5023753;28;20879;-79
2021/05/02 01:45:35;;;;;;;47.17;33.20;;;7.50;99.90;;;;;;5031548;28;20458;-78
2021/05/02 01:48:12;;;;;;;49.93;33.97;;;7.30;99.90;;;;;;5023995;28;20506;-77
2021/05/02 01:50:49;;;;;;;47.90;33.00;;;7.30;99.90;;;;;;5024387;28;20458;-78
2021/05/02 01:53:24;;;;;;;43.27;32.40;;;7.20;99.90;;;;;;5026934;28;20912;-78
2021/05/02 01:56:02;;;;;;;54.33;36.10;;;7.20;99.90;;;;;;5020775;28;20498;-81
2021/05/02 01:58:38;;;;;;;52.10;35.20;;;7.20;99.90;;;;;;5021417;28;20584;-85
2021/05/02 02:01:16;;;;;;;50.90;34.33;;;7.20;99.90;;;;;;5017651;28;21007;-80
2021/05/02 02:03:52;;;;;;;55.63;34.13;;;7.20;99.90;;;;;;5019517;28;20619;-79
2021/05/02 02:06:27;;;;;;;52.70;34.20;;;7.30;99.90;;;;;;5026585;28;20487;-80
2021/05/02 02:09:05;;;;;;;52.90;33.77;;;7.30;99.90;;;;;;5021287;28;21016;-78
2021/05/02 02:11:41;;;;;;;53.80;33.50;;;7.20;99.90;;;;;;5030322;28;20510;-80
2021/05/02 02:14:15;;;;;;;52.10;34.97;;;7.30;99.90;;;;;;5024587;28;20537;-80
2021/05/02 02:16:50;;;;;;;56.47;37.73;;;7.20;99.90;;;;;;5021951;28;20495;-79
2021/05/02 02:19:25;;;;;;;59.37;38.93;;;7.20;99.90;;;;;;5025010;28;20453;-82
2021/05/02 02:22:01;;;;;;;65.27;40.63;;;7.20;99.90;;;;;;5024270;28;20980;-77
2021/05/02 02:24:47;;;;;;;58.57;40.43;;;7.20;99.90;;;;;;5020820;28;21003;-78
2021/05/02 02:27:23;;;;;;;60.33;41.57;;;7.10;99.90;;;;;;5019463;28;20538;-78
2021/05/02 02:30:00;;;;;;;65.93;41.37;;;7.20;99.90;;;;;;5023124;28;20455;-77
2021/05/02 02:32:36;;;;;;;60.87;40.40;;;7.10;99.90;;;;;;5023325;28;20457;-77
2021/05/02 02:35:12;;;;;;;62.07;39.20;;;7.10;99.90;;;;;;5018888;28;20534;-78
2021/05/02 02:37:54;;;;;;;63.60;41.00;;;7.10;99.90;;;;;;5024700;28;20469;-78
2021/05/02 02:40:32;;;;;;;56.97;40.00;;;7.10;99.90;;;;;;5026477;28;20470;-78
2021/05/02 02:43:08;;;;;;;58.57;39.67;;;7.10;99.90;;;;;;5021304;28;20521;-81
2021/05/02 02:45:44;;;;;;;59.50;39.47;;;7.00;99.90;;;;;;5026912;28;20547;-80
2021/05/02 02:48:23;;;;;;;56.13;37.37;;;7.00;99.90;;;;;;5030283;28;20523;-81
2021/05/02 02:51:00;;;;;;;55.87;37.93;;;7.00;99.90;;;;;;5032030;28;20915;-78
2021/05/02 02:53:37;;;;;;;57.33;37.90;;;6.90;99.90;;;;;;5023762;28;20487;-77
2021/05/02 02:56:16;;;;;;;56.60;38.97;;;6.90;99.90;;;;;;5025655;28;20951;-78
2021/05/02 02:58:58;;;;;;;60.83;39.13;;;6.90;99.90;;;;;;5022150;28;20549;-79
2021/05/02 03:01:38;;;;;;;60.40;39.30;;;6.90;99.90;;;;;;5022622;28;20602;-77
2021/05/02 03:04:18;;;;;;;61.07;37.40;;;6.90;99.90;;;;;;5023736;28;20951;-77
2021/05/02 03:06:56;;;;;;;58.40;39.33;;;7.10;99.90;;;;;;5024217;28;20628;-77
2021/05/02 03:09:33;;;;;;;58.50;41.23;;;6.90;99.90;;;;;;5034558;28;21025;-77
2021/05/02 03:12:10;;;;;;;55.50;37.87;;;6.90;99.90;;;;;;5018030;28;20544;-81
2021/05/02 03:14:46;;;;;;;52.53;36.37;;;6.80;99.90;;;;;;5021915;28;20517;-77
2021/05/02 03:17:23;;;;;;;55.37;39.73;;;6.90;99.90;;;;;;5026871;28;20454;-76
2021/05/02 03:20:02;;;;;;;54.13;38.23;;;6.80;99.90;;;;;;5021114;28;20450;-76
2021/05/02 03:22:42;;;;;;;62.17;39.10;;;6.80;99.90;;;;;;5024542;28;20450;-78
2021/05/02 03:25:24;;;;;;;54.37;36.30;;;6.90;99.90;;;;;;5020820;28;20470;-81
2021/05/02 03:28:03;;;;;;;57.07;37.93;;;6.90;99.90;;;;;;5026721;28;20463;-77
2021/05/02 03:30:43;;;;;;;57.77;38.90;;;6.90;99.90;;;;;;5020033;28;20494;-79
2021/05/02 03:33:19;;;;;;;56.57;38.23;;;6.90;99.90;;;;;;5023764;28;20539;-78
2021/05/02 03:35:55;;;;;;;61.07;39.90;;;6.90;99.90;;;;;;5021759;28;20938;-78
2021/05/02 03:38:39;;;;;;;54.37;38.47;;;7.00;99.90;;;;;;5018414;28;21241;-77
2021/05/02 03:41:14;;;;;;;55.10;36.23;;;7.00;99.90;;;;;;5023747;28;20481;-80
2021/05/02 03:43:49;;;;;;;51.90;35.37;;;7.00;99.90;;;;;;5022830;28;20545;-78
2021/05/02 03:46:28;;;;;;;41.57;30.60;;;7.00;99.90;;;;;;5025642;28;20897;-78
2021/05/02 03:49:01;;;;;;;20.97;17.57;;;;;;;;;;5016974;28;20507;-78
2021/05/02 03:51:34;;;;;;;19.03;16.53;;;;;;;;;;5027255;28;20877;-78
2021/05/02 03:54:07;;;;;;;14.87;12.53;;;;;;;;;;5019914;28;21037;-78
2021/05/02 03:56:40;;;;;;;13.07;11.67;;;;;;;;;;5018994;28;21144;-78
2021/05/02 03:59:14;;;;;;;16.00;14.30;;;;;;;;;;5027376;28;20457;-77
2021/05/02 04:01:53;;;;;;;17.90;15.53;;;;;;;;;;5027542;28;20457;-79
2021/05/02 04:04:26;;;;;;;25.83;19.73;;;;;;;;;;5019835;28;20636;-79
2021/05/02 04:07:00;;;;;;;52.40;30.07;;;;;;;;;;5031131;28;20511;-78
2021/05/02 04:09:33;;;;;;;73.73;41.60;;;;;;;;;;5021419;28;20481;-79
2021/05/02 04:12:07;;;;;;;81.47;45.50;;;;;;;;;;5028755;28;20455;-79
2021/05/02 04:14:42;;;;;;;83.87;45.70;;;6.60;99.90;;;;;;5025831;28;20482;-79
2021/05/02 04:17:19;;;;;;;95.83;48.53;;;6.20;99.90;;;;;;5028173;28;20465;-78
2021/05/02 04:19:55;;;;;;;91.07;50.47;;;6.00;99.90;;;;;;5022865;28;20531;-78
2021/05/02 04:22:30;;;;;;;103.00;51.27;;;6.00;99.90;;;;;;5019386;28;20531;-77
2021/05/02 04:25:06;;;;;;;95.87;51.97;;;6.00;99.90;;;;;;5027306;28;20462;-78
2021/05/02 04:27:41;;;;;;;102.40;51.90;;;6.00;99.90;;;;;;5022217;28;20453;-78
2021/05/02 04:30:17;;;;;;;92.40;48.80;;;6.00;99.90;;;;;;5022947;28;20560;-77
2021/05/02 04:32:52;;;;;;;89.97;48.37;;;6.00;99.90;;;;;;5025001;28;20440;-77
2021/05/02 04:35:32;;;;;;;87.80;49.50;;;5.90;99.90;;;;;;5021680;28;20538;-81
2021/05/02 04:38:07;;;;;;;90.00;48.60;;;5.90;99.90;;;;;;5030887;28;20884;-77
2021/05/02 04:40:42;;;;;;;88.87;48.77;;;5.90;99.90;;;;;;5022203;28;20520;-79
2021/05/02 04:43:17;;;;;;;97.60;53.37;;;5.90;99.90;;;;;;5020218;28;20485;-79
2021/05/02 04:45:52;;;;;;;89.13;50.70;;;5.90;99.90;;;;;;5026003;28;20971;-80
2021/05/02 04:48:28;;;;;;;93.57;49.63;;;5.80;99.90;;;;;;5028639;28;20453;-78
2021/05/02 04:51:02;;;;;;;86.90;48.50;;;5.90;99.90;;;;;;5021833;28;20486;-79
2021/05/02 04:53:37;;;;;;;94.37;52.40;;;6.10;99.90;;;;;;5020161;28;20453;-78
2021/05/02 04:56:12;;;;;;;102.97;54.43;;;5.80;99.90;;;;;;5024597;28;20461;-79
2021/05/02 04:58:47;;;;;;;93.00;53.37;;;5.80;99.90;;;;;;5017724;28;20528;-78
2021/05/02 05:01:23;;;;;;;94.83;52.90;;;5.70;99.90;;;;;;5020033;28;20495;-81
2021/05/02 05:04:00;;;;;;;88.53;52.47;;;5.70;99.90;;;;;;5025035;28;20449;-78
2021/05/02 05:06:36;;;;;;;85.40;51.40;;;5.70;99.90;;;;;;5012502;28;20932;-82
2021/05/02 05:09:11;;;;;;;97.10;54.13;;;5.70;99.90;;;;;;5018363;28;20475;-78
2021/05/02 05:11:45;;;;;;;90.70;52.07;;;5.70;99.90;;;;;;5027173;28;20769;-81
2021/05/02 05:14:21;;;;;;;90.63;51.87;;;5.70;99.90;;;;;;5032383;28;21010;-79
2021/05/02 05:16:56;;;;;;;92.97;52.33;;;5.60;99.90;;;;;;5019695;28;20807;-80
2021/05/02 05:19:31;;;;;;;88.63;51.10;;;5.60;99.90;;;;;;5012612;28;21075;-78
2021/05/02 05:22:06;;;;;;;88.87;51.10;;;5.60;99.90;;;;;;5012357;28;20461;-78
2021/05/02 05:24:41;;;;;;;96.83;52.87;;;5.60;99.90;;;;;;5015583;28;21031;-77
2021/05/02 05:27:16;;;;;;;89.47;50.80;;;5.60;99.90;;;;;;5022895;28;20594;-79
2021/05/02 05:29:51;;;;;;;89.00;51.10;;;5.60;99.90;;;;;;5016331;28;20480;-79
2021/05/02 05:32:26;;;;;;;96.67;52.00;;;5.60;99.90;;;;;;5022423;28;20503;-79
2021/05/02 05:35:01;;;;;;;84.20;50.10;;;5.60;99.90;;;;;;5019406;28;20443;-79
2021/05/02 05:37:36;;;;;;;90.27;50.93;;;5.60;99.90;;;;;;5025254;28;20490;-79
2021/05/02 05:40:12;;;;;;;91.00;50.37;;;5.70;99.90;;;;;;5028653;28;20494;-78
2021/05/02 05:42:46;;;;;;;81.50;48.83;;;5.70;99.90;;;;;;5014180;28;20471;-81
2021/05/02 05:45:21;;;;;;;84.20;49.30;;;5.70;99.90;;;;;;5019581;28;20557;-79
2021/05/02 05:47:58;;;;;;;87.20;50.30;;;5.60;99.90;;;;;;5018889;28;20537;-79
2021/05/02 05:50:34;;;;;;;76.80;44.93;;;5.60;99.90;;;;;;5022779;28;20542;-78
2021/05/02 05:53:08;;;;;;;79.93;47.77;;;5.50;99.90;;;;;;5019617;28;20978;-80
2021/05/02 05:55:43;;;;;;;69.77;48.67;;;5.50;99.90;;;;;;5025567;28;20517;-79
2021/05/02 05:58:18;;;;;;;70.33;45.47;;;5.30;99.90;;;;;;5018311;28;20482;-79
2021/05/02 06:00:53;;;;;;;68.80;45.70;;;5.40;99.90;;;;;;5015383;28;20456;-79
2021/05/02 06:03:27;;;;;;;65.87;45.30;;;5.40;99.90;;;;;;5025056;28;20772;-84
2021/05/02 06:06:03;;;;;;;81.10;49.60;;;5.50;99.90;;;;;;5024323;28;20484;-80
2021/05/02 06:08:38;;;;;;;71.30;46.03;;;5.60;99.90;;;;;;5018787;28;20444;-81
2021/05/02 06:11:12;;;;;;;71.63;45.00;;;5.60;99.90;;;;;;5022206;28;20516;-84
2021/05/02 06:13:47;;;;;;;65.80;45.93;;;5.50;99.90;;;;;;5018597;28;20561;-81
2021/05/02 06:16:22;;;;;;;68.63;45.27;;;5.60;99.90;;;;;;5021794;28;20446;-84
2021/05/02 06:18:58;;;;;;;71.90;45.03;;;5.60;99.90;;;;;;5021818;28;21034;-81
2021/05/02 06:21:34;;;;;;;69.70;44.73;;;5.80;99.90;;;;;;5017710;28;20493;-81
2021/05/02 06:24:09;;;;;;;75.53;46.80;;;5.90;99.90;;;;;;5019382;28;20449;-81
2021/05/02 06:26:44;;;;;;;64.00;43.60;;;6.10;99.90;;;;;;5027333;28;20568;-83
2021/05/02 06:29:19;;;;;;;65.50;44.20;;;6.00;99.90;;;;;;5026615;28;20446;-82
2021/05/02 06:31:54;;;;;;;64.47;40.93;;;6.00;99.90;;;;;;5019696;28;20453;-81
2021/05/02 06:34:26;;;;;;;64.00;44.50;;;5.80;99.90;;;;;;5026809;28;20506;-83
2021/05/02 06:37:01;;;;;;;60.90;40.93;;;5.80;99.90;;;;;;5031268;28;20466;-81
2021/05/02 06:39:36;;;;;;;60.17;42.67;;;5.90;99.90;;;;;;5029910;28;20474;-80
2021/05/02 06:42:11;;;;;;;57.27;42.10;;;6.10;99.90;;;;;;5041268;28;20469;-80
2021/05/02 06:44:45;;;;;;;61.33;42.03;;;5.90;99.90;;;;;;5034045;28;20462;-83
2021/05/02 06:47:20;;;;;;;63.40;42.80;;;6.00;99.90;;;;;;5025420;28;20981;-80
2021/05/02 06:49:55;;;;;;;58.60;40.30;;;6.20;99.90;;;;;;5025422;28;20448;-80
2021/05/02 06:52:31;;;;;;;55.80;40.17;;;6.20;99.90;;;;;;5027442;28;20883;-80
2021/05/02 06:55:06;;;;;;;54.10;39.13;;;6.20;99.90;;;;;;5030144;28;20452;-81
2021/05/02 06:57:41;;;;;;;48.37;38.93;;;6.20;99.90;;;;;;5036101;28;20956;-80
2021/05/02 07:00:17;;;;;;;47.50;35.70;;;6.20;99.90;;;;;;5030876;28;20536;-81
2021/05/02 07:02:52;;;;;;;47.03;35.60;;;6.20;99.90;;;;;;5024288;28;20524;-81
2021/05/02 07:05:27;;;;;;;48.03;37.73;;;6.10;99.90;;;;;;5033484;28;20457;-79
2021/05/02 07:08:03;;;;;;;50.43;36.90;;;6.30;99.90;;;;;;5028301;28;20451;-81
2021/05/02 07:10:37;;;;;;;46.93;36.10;;;6.20;99.90;;;;;;5032058;28;20448;-83
2021/05/02 07:13:12;;;;;;;46.23;36.60;;;6.20;99.90;;;;;;5023675;28;20455;-82
2021/05/02 07:15:47;;;;;;;46.27;35.70;;;6.20;99.90;;;;;;5021220;28;20450;-82
2021/05/02 07:18:22;;;;;;;45.23;35.20;;;6.20;99.90;;;;;;5038870;28;20472;-81
2021/05/02 07:20:57;;;;;;;48.17;36.80;;;6.30;99.90;;;;;;5035823;28;20453;-81
2021/05/02 07:23:33;;;;;;;47.07;37.53;;;6.30;99.90;;;;;;5033464;28;20985;-82
2021/05/02 07:26:05;;;;;;;42.77;34.83;;;;;;;;;;5030362;28;20501;-82
2021/05/02 07:28:38;;;;;;;44.67;35.70;;;;;;;;;;5028100;28;20452;-79
2021/05/02 07:31:11;;;;;;;47.50;36.30;;;;;;;;;;5034234;28;20455;-81
2021/05/02 07:33:43;;;;;;;46.60;36.80;;;;;;;;;;5020098;28;20481;-80
2021/05/02 07:36:16;;;;;;;41.87;35.07;;;;;;;;;;5029038;28;20461;-82
2021/05/02 07:38:49;;;;;;;46.30;36.37;;;;;;;;;;5022052;28;20959;-81
2021/05/02 07:41:24;;;;;;;41.23;31.93;;;6.70;99.90;;;;;;5031753;28;20574;-79
2021/05/02 07:43:59;;;;;;;39.90;32.07;;;6.40;99.90;;;;;;5021399;28;20491;-80
2021/05/02 07:46:32;;;;;;;41.73;35.20;;;;;;;;;;5024688;28;20474;-80
2021/05/02 07:49:07;;;;;;;38.57;31.57;;;6.60;99.90;;;;;;5029386;28;20475;-81
2021/05/02 07:51:41;;;;;;;39.33;33.30;;;6.40;99.90;;;;;;5028304;28;20820;-79
2021/05/02 07:54:17;;;;;;;38.40;31.47;;;6.40;99.90;;;;;;5026158;28;20464;-81
2021/05/02 07:56:52;;;;;;;39.83;33.33;;;6.40;99.90;;;;;;5029513;28;20460;-83
2021/05/02 07:59:27;;;;;;;40.87;32.87;;;6.60;99.90;;;;;;5022208;28;20476;-79
2021/05/02 08:02:01;;;;;;;39.43;31.07;;;6.60;99.90;;;;;;5023615;28;20452;-81
2021/05/02 08:04:38;;;;;;;38.10;31.90;;;6.60;99.90;;;;;;5020523;28;20452;-81
2021/05/02 08:07:13;;;;;;;38.03;31.83;;;6.60;99.90;;;;;;5017428;28;20449;-80
2021/05/02 08:09:49;;;;;;;39.47;31.67;;;6.70;99.90;;;;;;5029230;28;20920;-80
2021/05/02 08:12:23;;;;;;;38.40;33.53;;;6.90;99.90;;;;;;5027780;28;20460;-80
2021/05/02 08:14:58;;;;;;;37.57;31.40;;;7.10;99.90;;;;;;5039622;28;20455;-85
2021/05/02 08:17:33;;;;;;;35.13;30.10;;;7.20;99.90;;;;;;5046208;28;20492;-81
2021/05/02 08:20:10;;;;;;;34.90;29.57;;;7.40;99.90;;;;;;5032189;28;20528;-81
2021/05/02 08:22:45;;;;;;;30.90;27.63;;;7.40;99.90;;;;;;5026868;28;20484;-79
2021/05/02 08:25:30;;;;;;;32.70;28.67;;;7.40;99.90;;;;;;5026730;28;20490;-80
2021/05/02 08:28:05;;;;;;;31.33;27.77;;;7.30;99.90;;;;;;5026303;28;20912;-81
2021/05/02 08:30:40;;;;;;;33.73;30.13;;;7.20;99.90;;;;;;5025310;28;20465;-77
2021/05/02 08:33:20;;;;;;;33.47;29.17;;;7.10;99.90;;;;;;5020882;28;20917;-78
2021/05/02 08:35:55;;;;;;;30.77;27.53;;;7.20;99.90;;;;;;5020406;28;20534;-79
2021/05/02 08:38:30;;;;;;;30.33;27.13;;;7.20;99.90;;;;;;5018652;28;20504;-80
2021/05/02 08:41:07;;;;;;;29.83;26.53;;;7.40;99.90;;;;;;5023327;28;20482;-81
2021/05/02 08:43:43;;;;;;;31.10;27.90;;;7.50;98.00;;;;;;5020634;28;20453;-80
2021/05/02 08:46:18;;;;;;;31.50;28.20;;;7.70;99.90;;;;;;5021321;28;20450;-80
2021/05/02 08:48:58;;;;;;;33.07;29.37;;;7.90;96.50;;;;;;5021439;28;20452;-78
2021/05/02 08:51:33;;;;;;;28.63;25.70;;;8.10;94.60;;;;;;5016274;28;20488;-82
2021/05/02 08:54:12;;;;;;;28.00;25.20;;;8.10;92.90;;;;;;5029012;28;20959;-81
2021/05/02 08:56:48;;;;;;;27.60;24.60;;;8.20;99.90;;;;;;5027921;28;20444;-81
2021/05/02 08:59:23;;;;;;;25.83;23.23;;;8.40;93.80;;;;;;5024940;28;20473;-78
2021/05/02 09:02:01;;;;;;;22.30;19.93;;;8.30;91.60;;;;;;5023853;28;20508;-81
2021/05/02 09:04:40;;;;;;;22.23;19.90;;;8.40;91.30;;;;;;5009316;28;20550;-80
2021/05/02 09:07:20;;;;;;;22.73;19.67;;;8.50;86.50;;;;;;5022205;28;20558;-80
2021/05/02 09:09:55;;;;;;;21.33;19.00;;;8.80;85.90;;;;;;5019527;28;20481;-79
2021/05/02 09:12:31;;;;;;;21.50;19.20;;;9.00;83.10;;;;;;5032115;28;20453;-79
2021/05/02 09:15:21;;;;;;;22.30;20.10;;;8.90;85.30;;;;;;5025521;28;20890;-79
2021/05/02 09:18:10;;;;;;;22.07;19.90;;;9.10;83.70;;;;;;5022551;28;20537;-79
2021/05/02 09:20:53;;;;;;;20.57;18.70;;;9.60;88.20;;;;;;5028162;28;20510;-80
2021/05/02 09:23:36;;;;;;;21.00;18.97;;;9.50;82.10;;;;;;5023000;28;20463;-78
2021/05/02 09:26:22;;;;;;;20.60;18.60;;;9.60;82.90;;;;;;5029835;28;20822;-79
2021/05/02 09:29:00;;;;;;;20.77;18.87;;;9.60;81.90;;;;;;5026984;28;20446;-79
2021/05/02 09:31:37;;;;;;;22.10;19.80;;;9.40;82.40;;;;;;5019695;28;20808;-79
2021/05/02 09:34:22;;;;;;;19.67;17.70;;;9.20;83.00;;;;;;5047935;28;20476;-77
2021/05/02 09:37:03;;;;;;;19.20;17.20;;;8.90;81.00;;;;;;5033406;28;20457;-77
2021/05/02 09:39:52;;;;;;;18.80;17.10;;;8.80;81.60;;;;;;5019652;28;20472;-78
2021/05/02 09:42:30;;;;;;;22.00;18.00;;;8.70;80.80;;;;;;5030259;28;20482;-79
2021/05/02 09:45:07;;;;;;;18.23;16.63;;;8.80;81.50;;;;;;5027574;28;20462;-77
2021/05/02 09:47:43;;;;;;;20.30;18.20;;;9.00;82.10;;;;;;5023577;28;20454;-78
2021/05/02 09:50:20;;;;;;;20.20;18.20;;;8.90;79.80;;;;;;5031941;28;20446;-77
2021/05/02 09:53:02;;;;;;;20.33;18.37;;;9.20;79.10;;;;;;5026839;28;20465;-81
2021/05/02 09:55:39;;;;;;;19.53;17.63;;;9.00;80.20;;;;;;5024797;28;20459;-81
2021/05/02 09:58:17;;;;;;;19.20;17.33;;;8.70;78.80;;;;;;5026700;28;20447;-77
2021/05/02 10:01:06;;;;;;;18.23;16.53;;;9.10;81.20;;;;;;5024598;28;20450;-80
2021/05/02 10:03:44;;;;;;;18.47;16.67;;;9.70;78.90;;;;;;5028565;28;20459;-78
2021/05/02 10:06:30;;;;;;;19.07;17.03;;;9.80;76.80;;;;;;5023808;28;20439;-78
2021/05/02 10:09:12;;;;;;;19.90;17.90;;;9.20;78.50;;;;;;5022989;28;20479;-78
2021/05/02 10:11:46;;;;;;;21.90;19.70;;;9.40;79.10;;;;;;5028768;28;20458;-78
2021/05/02 10:14:21;;;;;;;20.40;18.40;;;9.20;80.70;;;;;;5024693;28;20463;-82
2021/05/02 10:17:00;;;;;;;21.80;19.70;;;9.40;79.30;;;;;;5035169;28;20438;-80
2021/05/02 10:19:35;;;;;;;20.27;18.27;;;9.60;82.20;;;;;;5028793;28;20481;-79
2021/05/02 10:22:17;;;;;;;18.07;16.07;;;9.10;80.60;;;;;;5024829;28;20531;-81
2021/05/02 10:24:54;;;;;;;20.20;18.30;;;9.10;78.30;;;;;;5022681;28;20489;-79
2021/05/02 10:27:29;;;;;;;18.93;17.13;;;9.20;76.70;;;;;;5025446;28;20820;-78
2021/05/02 10:30:04;;;;;;;19.17;17.37;;;9.80;76.40;;;;;;5030330;28;20452;-79
2021/05/02 10:32:40;;;;;;;19.07;17.23;;;10.00;75.80;;;;;;5040330;28;21061;-78
2021/05/02 10:35:17;;;;;;;19.57;17.67;;;10.70;76.20;;;;;;5033547;28;20451;-79
2021/05/02 10:37:59;;;;;;;18.33;16.73;;;11.40;75.30;;;;;;5038781;28;20434;-78
2021/05/02 10:40:35;;;;;;;17.67;15.97;;;11.60;72.50;;;;;;5024675;28;20480;-81
2021/05/02 10:43:28;;;;;;;17.33;15.63;;;11.60;70.70;;;;;;5028537;28;20443;-79
2021/05/02 10:46:03;;;;;;;16.33;14.83;;;11.30;69.70;;;;;;5021532;28;20448;-79
2021/05/02 10:48:52;;;;;;;18.87;17.17;;;10.90;70.10;;;;;;5029740;28;20440;-78
2021/05/02 10:51:37;;;;;;;18.67;16.97;;;10.90;71.30;;;;;;5030928;28;20470;-78
2021/05/02 10:54:19;;;;;;;18.33;16.53;;;10.20;70.30;;;;;;5026215;28;20448;-80
2021/05/02 10:57:02;;;;;;;16.90;15.33;;;9.90;72.70;;;;;;5035645;28;20450;-79
2021/05/02 11:00:07;;;;;;;17.63;16.13;;;9.70;73.00;;;;;;5024888;28;20471;-79
2021/05/02 11:02:49;;;;;;;19.70;17.90;;;9.50;74.10;;;;;;5015185;28;20479;-77
2021/05/02 11:05:25;;;;;;;17.43;15.93;;;9.30;77.80;;;;;;5025221;28;20454;-79
2021/05/02 11:08:02;;;;;;;17.80;15.97;;;9.00;76.20;;;;;;5026151;28;20535;-83
2021/05/02 11:10:55;;;;;;;16.40;14.80;;;8.70;73.30;;;;;;5020717;28;20897;-78
2021/05/02 11:13:33;;;;;;;16.83;15.20;;;8.50;74.50;;;;;;5021372;28;20497;-77
2021/05/02 11:16:26;;;;;;;15.27;13.97;;;8.70;75.50;;;;;;5024719;28;20463;-80
2021/05/02 11:19:01;;;;;;;17.10;15.30;;;8.60;74.00;;;;;;5029578;28;20473;-77
2021/05/02 11:22:08;;;;;;;17.07;15.57;;;8.50;74.10;;;;;;5022451;28;20451;-77
2021/05/02 11:25:04;;;;;;;16.43;14.57;;;8.50;76.00;;;;;;5009979;28;20458;-81
2021/05/02 11:28:08;;;;;;;16.50;14.90;;;8.70;74.80;;;;;;5025525;28;20478;-79
2021/05/02 11:30:49;;;;;;;16.40;14.70;;;8.80;74.50;;;;;;5023816;28;20447;-78
2021/05/02 11:33:29;;;;;;;15.23;13.73;;;9.30;73.80;;;;;;5027534;28;20454;-78
2021/05/02 11:36:04;;;;;;;14.93;13.70;;;10.40;71.00;;;;;;5029542;28;20444;-80
2021/05/02 11:38:54;;;;;;;13.90;12.60;;;10.80;70.20;;;;;;5031301;28;20460;-78
2021/05/02 11:41:30;;;;;;;14.73;13.43;;;11.00;67.70;;;;;;5028082;28;20486;-80
2021/05/02 11:44:13;;;;;;;14.83;13.40;;;11.50;67.60;;;;;;5026001;28;20463;-80
2021/05/02 11:46:49;;;;;;;13.70;12.53;;;11.10;66.00;;;;;;5030995;28;20458;-79
2021/05/02 11:49:24;;;;;;;15.57;14.17;;;11.00;67.70;;;;;;5027985;28;20466;-79
2021/05/02 11:52:01;;;;;;;16.17;14.77;;;10.40;70.20;;;;;;5032947;28;20453;-79
2021/05/02 11:54:36;;;;;;;15.10;13.70;;;9.90;69.30;;;;;;5032010;28;20965;-79
2021/05/02 11:57:12;;;;;;;17.30;15.60;;;9.70;70.80;;;;;;5033259;28;20530;-78
2021/05/02 11:59:54;;;;;;;16.03;14.43;;;9.70;72.10;;;;;;5031999;28;20486;-80
2021/05/02 12:02:28;;;;;;;17.03;15.50;;;9.90;72.60;;;;;;5033074;28;21210;-78
2021/05/02 12:05:05;;;;;;;16.87;15.10;;;10.00;69.90;;;;;;5028687;28;20523;-78
2021/05/02 12:07:39;;;;;;;17.07;15.57;;;10.70;69.60;;;;;;5026857;28;20542;-77
2021/05/02 12:10:28;;;;;;;15.47;13.90;;;11.10;69.20;;;;;;5021390;28;20463;-80
2021/05/02 12:13:01;;;;;;;16.40;14.80;;;11.30;66.80;;;;;;5025184;28;20455;-80
2021/05/02 12:15:36;;;;;;;14.93;13.63;;;12.00;64.90;;;;;;5029525;28;20456;-82
2021/05/02 12:18:11;;;;;;;16.03;14.53;;;11.60;64.50;;;;;;5027478;28;20446;-79
2021/05/02 12:20:46;;;;;;;16.40;14.90;;;12.20;63.20;;;;;;5026222;28;20467;-79
2021/05/02 12:23:32;;;;;;;15.27;13.87;;;12.30;61.70;;;;;;5025095;28;20950;-78
2021/05/02 12:26:12;;;;;;;15.23;13.63;;;12.60;60.80;;;;;;5029485;28;20517;-80
2021/05/02 12:28:50;;;;;;;15.63;14.37;;;11.90;62.00;;;;;;5022869;28;20448;-82
2021/05/02 12:31:25;;;;;;;15.97;14.60;;;12.20;62.90;;;;;;5026437;28;20483;-82
2021/05/02 12:33:59;;;;;;;16.90;15.40;;;12.40;62.40;;;;;;5027432;28;20760;-82
2021/05/02 12:36:32;;;;;;;15.40;14.00;;;12.40;61.20;;;;;;5028944;28;20444;-79
2021/05/02 12:39:12;;;;;;;17.00;15.40;;;12.00;60.40;;;;;;5025964;28;20475;-81
2021/05/02 12:41:54;;;;;;;16.23;14.53;;;12.00;61.50;;;;;;5021990;28;20455;-79
2021/05/02 12:44:31;;;;;;;16.40;15.00;;;12.10;60.60;;;;;;5022516;28;20455;-82
2021/05/02 12:47:16;;;;;;;17.57;16.00;;;12.10;61.50;;;;;;5021758;28;20496;-80
2021/05/02 12:50:00;;;;;;;16.43;15.13;;;12.40;61.00;;;;;;5016026;28;20458;-79
2021/05/02 12:52:36;;;;;;;17.30;15.70;;;12.40;60.50;;;;;;5019548;28;20443;-80
2021/05/02 12:55:28;;;;;;;17.83;16.00;;;11.90;61.20;;;;;;5020261;28;20538;-79
2021/05/02 12:58:05;;;;;;;16.80;15.30;;;11.50;63.00;;;;;;5018378;28;20845;-79
2021/05/02 13:00:44;;;;;;;18.17;16.53;;;11.30;63.20;;;;;;5019721;28;20566;-83
2021/05/02 13:03:37;;;;;;;18.67;16.97;;;11.10;63.80;;;;;;5025401;28;20450;-79
2021/05/02 13:06:14;;;;;;;17.97;16.40;;;11.10;64.70;;;;;;5020741;28;20477;-80
2021/05/02 13:09:02;;;;;;;19.37;17.57;;;10.70;64.70;;;;;;5025454;28;20469;-79
2021/05/02 13:11:39;;;;;;;21.53;19.63;;;10.80;66.60;;;;;;5020571;28;20458;-84
2021/05/02 13:14:27;;;;;;;21.53;19.57;;;10.30;71.20;;;;;;5028376;28;20455;-79
2021/05/02 13:17:04;;;;;;;19.67;17.83;;;10.60;73.00;;;;;;5025427;28;20452;-79
2021/05/02 13:19:42;;;;;;;19.53;17.73;;;10.70;70.10;;;;;;5022854;28;20478;-81
2021/05/02 13:22:22;;;;;;;21.10;19.20;;;11.10;71.20;;;;;;5021687;28;20466;-79
2021/05/02 13:25:23;;;;;;;20.83;19.03;;;11.20;70.10;;;;;;5024857;28;20463;-79
2021/05/02 13:28:08;;;;;;;20.13;18.17;;;11.60;71.10;;;;;;5023809;28;20880;-78
2021/05/02 13:30:46;;;;;;;20.60;18.70;;;12.20;71.30;;;;;;5023005;28;20456;-79
2021/05/02 13:33:32;;;;;;;18.90;17.30;;;13.10;69.50;;;;;;5031380;28;20461;-82
2021/05/02 13:36:06;;;;;;;20.10;18.30;;;13.90;67.00;;;;;;5032247;28;20443;-79
2021/05/02 13:38:41;;;;;;;18.10;16.60;;;14.20;66.00;;;;;;5022429;28;20509;-81
2021/05/02 13:41:16;;;;;;;17.67;16.17;;;14.60;64.80;;;;;;5024395;28;20817;-80
2021/05/02 13:43:51;;;;;;;16.67;15.23;;;14.50;62.40;;;;;;5022105;28;20466;-81